Haukur — OZ2119 — position and weather

sailwx.info

Track history (hours):
 
Tides and Currents Weather Stations Pressure Air Temp Water Temp Dewpoint Dewpoint Depression Visibility Wind Speed Wind Dir Waves Ship Positions

Haukur

Last reported at 2014-Oct-15 01:28 UTC. Time now 2014-Oct-21 16:56 UTC.
Position N 62°28' W 008°13'.

Length 75 m; draft 6.1 m.

Type: Cargo ship. MMSI: 231812000.

Date/timePositionNaut miles runAvg speedWind from/ knotsBaromVisibWave heightAir tempDewpointWater temp
2014-Oct-15 01:28N 62°28' W 008°13'28 8.9
2014-Oct-14 22:20N 62°23' W 007°13'9 9.2
2014-Oct-14 21:23N 62°21' W 006°55'8 9.4
2014-Oct-14 20:33N 62°15' W 006°45'2 1.5
2014-Oct-14 19:30N 62°14' W 006°48'0 0.0
2014-Oct-14 18:33N 62°14' W 006°48'0 0.0
2014-Oct-14 17:33N 62°14' W 006°48'0 0.0
2014-Oct-14 16:33N 62°14' W 006°48'0 0.0
2014-Oct-14 15:33N 62°14' W 006°48'0 0.0
2014-Oct-14 14:33N 62°14' W 006°48'0 0.0
2014-Oct-14 13:33N 62°14' W 006°48'0 0.0
2014-Oct-14 12:33N 62°14' W 006°48'0 0.0
2014-Oct-14 11:33N 62°14' W 006°48'5 5.1
2014-Oct-14 10:33N 62°12' W 006°38'9 9.2
2014-Oct-14 09:34N 62°07' W 006°22'9 9.4
2014-Oct-14 08:34N 62°03' W 006°04'9 9.3
2014-Oct-14 07:33N 61°59' W 005°46'9 9.1
2014-Oct-14 06:34N 61°55' W 005°29'11 9.3
2014-Oct-14 05:23N 61°50' W 005°08'332 8.5
2014-Oct-12 14:30N 59°12' E 004°46'9 9.0
2014-Oct-12 13:33N 59°08' E 004°60'9 8.7
2014-Oct-12 12:33N 59°07' E 005°17'9 9.0
2014-Oct-12 11:33N 59°09' E 005°34'10 9.6
2014-Oct-12 10:34N 59°07' E 005°52'2 1.9
2014-Oct-12 09:31N 59°05' E 005°54'0 0.0
2014-Oct-12 08:25N 59°05' E 005°54'0 0.0
2014-Oct-12 07:31N 59°05' E 005°54'0 0.0
2014-Oct-12 06:31N 59°05' E 005°54'1 0.7
2014-Oct-12 05:33N 59°05' E 005°53'8 8.2
2014-Oct-12 04:33N 59°01' E 005°39'6 6.3
2014-Oct-12 03:34N 58°56' E 005°33'10 9.9
2014-Oct-12 02:33N 58°47' E 005°25'1010.1
2014-Oct-12 01:34N 58°37' E 005°32'10 9.7
2014-Oct-12 00:33N 58°29' E 005°43'10 9.8
2014-Oct-11 23:33N 58°22' E 005°57'10 9.5
2014-Oct-11 22:33N 58°16' E 006°10'10 9.8
2014-Oct-11 21:33N 58°09' E 006°24'110 9.8
2014-Oct-11 10:23N 57°51' E 009°48'8 9.5
2014-Oct-11 09:33N 57°51' E 010°03'9 9.2
2014-Oct-11 08:34N 57°50' E 010°20'9 8.9
2014-Oct-11 07:34N 57°50' E 010°37'7 6.7
2014-Oct-11 06:33N 57°46' E 010°47'1111.3
2014-Oct-11 05:33N 57°34' E 010°45'1111.1
2014-Oct-11 04:33N 57°23' E 010°44'1111.1
2014-Oct-11 03:31N 57°12' E 010°45'1110.9
2014-Oct-11 02:33N 57°01' E 010°51'9 9.3
2014-Oct-11 01:32N 56°53' E 010°44'8 7.8
2014-Oct-11 00:33N 56°54' E 010°31'10 9.6
2014-Oct-10 23:34N 56°59' E 010°15'7 7.3
2014-Oct-10 22:33N 57°03' E 010°04'0 0.0
2014-Oct-10 21:32N 57°03' E 010°04'0 0.0
2014-Oct-10 20:29N 57°03' E 010°04'0 0.0
2014-Oct-10 19:32N 57°03' E 010°04'0 0.0
2014-Oct-10 18:26N 57°03' E 010°04'0 0.0
2014-Oct-10 17:29N 57°03' E 010°04'0 0.0
2014-Oct-10 16:32N 57°03' E 010°04'0 0.0
2014-Oct-10 15:29N 57°03' E 010°04'0 0.0
2014-Oct-10 14:28N 57°03' E 010°04'0 0.0
2014-Oct-10 13:31N 57°03' E 010°04'0 0.0
2014-Oct-10 12:31N 57°03' E 010°04'0 0.0
2014-Oct-10 11:25N 57°03' E 010°04'0 0.0
2014-Oct-10 10:31N 57°03' E 010°04'0 0.0
2014-Oct-10 09:31N 57°03' E 010°04'0 0.0
2014-Oct-10 08:31N 57°03' E 010°04'0 0.0
2014-Oct-10 07:31N 57°03' E 010°04'0 0.0
2014-Oct-10 06:25N 57°03' E 010°04'0 0.0
2014-Oct-10 05:28N 57°03' E 010°04'0 0.0
2014-Oct-10 04:31N 57°03' E 010°04'0 0.0
2014-Oct-10 03:33N 57°03' E 010°04'4 4.1
2014-Oct-10 02:33N 57°00' E 010°10'7 6.7
2014-Oct-10 01:33N 56°58' E 010°21'13 6.1
2014-Oct-09 23:25N 56°51' E 010°42'15 4.9
2014-Oct-09 20:18N 57°06' E 010°47'4 5.8
2014-Oct-09 19:34N 57°10' E 010°45'7 6.0
2014-Oct-09 18:25N 57°17' E 010°41'6 6.4
2014-Oct-09 17:33N 57°22' E 010°42'6 6.1
2014-Oct-09 16:33N 57°28' E 010°43'6 6.1
2014-Oct-09 15:33N 57°34' E 010°44'6 6.1
2014-Oct-09 14:34N 57°40' E 010°45'7 6.5
2014-Oct-09 13:33N 57°47' E 010°43'1110.7
2014-Oct-09 12:33N 57°47' E 010°23'1010.0
2014-Oct-09 11:33N 57°46' E 010°05'135 7.5
2014-Oct-08 17:33N 58°02' E 005°52'14 6.9
2014-Oct-08 15:30N 58°11' E 005°32'  
2014-Oct-05 03:24N 62°13' W 005°34'6 6.7
2014-Oct-05 02:33N 62°16' W 005°45'6 6.4
2014-Oct-05 01:33N 62°19' W 005°57'  
Track history (hours):
 
Tides and Currents Weather Stations Pressure Air Temp Water Temp Dewpoint Dewpoint Depression Visibility Wind Speed Wind Dir Waves Ship Positions

Haukur

Last reported at 2014-Oct-15 01:28 UTC. Time now 2014-Oct-21 16:56 UTC.
Position N 62°28' W 008°13'.

Length 75 m; draft 6.1 m.

Type: Cargo ship. MMSI: 231812000.

Date/timePositionNaut miles runAvg speedWind from/ knotsBaromVisibWave heightAir tempDewpointWater temp
2014-Oct-15 01:28N 62°28' W 008°13'28 8.9
2014-Oct-14 22:20N 62°23' W 007°13'9 9.2
2014-Oct-14 21:23N 62°21' W 006°55'8 9.4
2014-Oct-14 20:33N 62°15' W 006°45'2 1.5
2014-Oct-14 19:30N 62°14' W 006°48'0 0.0
2014-Oct-14 18:33N 62°14' W 006°48'0 0.0
2014-Oct-14 17:33N 62°14' W 006°48'0 0.0
2014-Oct-14 16:33N 62°14' W 006°48'0 0.0
2014-Oct-14 15:33N 62°14' W 006°48'0 0.0
2014-Oct-14 14:33N 62°14' W 006°48'0 0.0
2014-Oct-14 13:33N 62°14' W 006°48'0 0.0
2014-Oct-14 12:33N 62°14' W 006°48'0 0.0
2014-Oct-14 11:33N 62°14' W 006°48'5 5.1
2014-Oct-14 10:33N 62°12' W 006°38'9 9.2
2014-Oct-14 09:34N 62°07' W 006°22'9 9.4
2014-Oct-14 08:34N 62°03' W 006°04'9 9.3
2014-Oct-14 07:33N 61°59' W 005°46'9 9.1
2014-Oct-14 06:34N 61°55' W 005°29'11 9.3
2014-Oct-14 05:23N 61°50' W 005°08'332 8.5
2014-Oct-12 14:30N 59°12' E 004°46'9 9.0
2014-Oct-12 13:33N 59°08' E 004°60'9 8.7
2014-Oct-12 12:33N 59°07' E 005°17'9 9.0
2014-Oct-12 11:33N 59°09' E 005°34'10 9.6
2014-Oct-12 10:34N 59°07' E 005°52'2 1.9
2014-Oct-12 09:31N 59°05' E 005°54'0 0.0
2014-Oct-12 08:25N 59°05' E 005°54'0 0.0
2014-Oct-12 07:31N 59°05' E 005°54'0 0.0
2014-Oct-12 06:31N 59°05' E 005°54'1 0.7
2014-Oct-12 05:33N 59°05' E 005°53'8 8.2
2014-Oct-12 04:33N 59°01' E 005°39'6 6.3
2014-Oct-12 03:34N 58°56' E 005°33'10 9.9
2014-Oct-12 02:33N 58°47' E 005°25'1010.1
2014-Oct-12 01:34N 58°37' E 005°32'10 9.7
2014-Oct-12 00:33N 58°29' E 005°43'10 9.8
2014-Oct-11 23:33N 58°22' E 005°57'10 9.5
2014-Oct-11 22:33N 58°16' E 006°10'10 9.8
2014-Oct-11 21:33N 58°09' E 006°24'110 9.8
2014-Oct-11 10:23N 57°51' E 009°48'8 9.5
2014-Oct-11 09:33N 57°51' E 010°03'9 9.2
2014-Oct-11 08:34N 57°50' E 010°20'9 8.9
2014-Oct-11 07:34N 57°50' E 010°37'7 6.7
2014-Oct-11 06:33N 57°46' E 010°47'1111.3
2014-Oct-11 05:33N 57°34' E 010°45'1111.1
2014-Oct-11 04:33N 57°23' E 010°44'1111.1
2014-Oct-11 03:31N 57°12' E 010°45'1110.9
2014-Oct-11 02:33N 57°01' E 010°51'9 9.3
2014-Oct-11 01:32N 56°53' E 010°44'8 7.8
2014-Oct-11 00:33N 56°54' E 010°31'10 9.6
2014-Oct-10 23:34N 56°59' E 010°15'7 7.3
2014-Oct-10 22:33N 57°03' E 010°04'0 0.0
2014-Oct-10 21:32N 57°03' E 010°04'0 0.0
2014-Oct-10 20:29N 57°03' E 010°04'0 0.0
2014-Oct-10 19:32N 57°03' E 010°04'0 0.0
2014-Oct-10 18:26N 57°03' E 010°04'0 0.0
2014-Oct-10 17:29N 57°03' E 010°04'0 0.0
2014-Oct-10 16:32N 57°03' E 010°04'0 0.0
2014-Oct-10 15:29N 57°03' E 010°04'0 0.0
2014-Oct-10 14:28N 57°03' E 010°04'0 0.0
2014-Oct-10 13:31N 57°03' E 010°04'0 0.0
2014-Oct-10 12:31N 57°03' E 010°04'0 0.0
2014-Oct-10 11:25N 57°03' E 010°04'0 0.0
2014-Oct-10 10:31N 57°03' E 010°04'0 0.0
2014-Oct-10 09:31N 57°03' E 010°04'0 0.0
2014-Oct-10 08:31N 57°03' E 010°04'0 0.0
2014-Oct-10 07:31N 57°03' E 010°04'0 0.0
2014-Oct-10 06:25N 57°03' E 010°04'0 0.0
2014-Oct-10 05:28N 57°03' E 010°04'0 0.0
2014-Oct-10 04:31N 57°03' E 010°04'0 0.0
2014-Oct-10 03:33N 57°03' E 010°04'4 4.1
2014-Oct-10 02:33N 57°00' E 010°10'7 6.7
2014-Oct-10 01:33N 56°58' E 010°21'13 6.1
2014-Oct-09 23:25N 56°51' E 010°42'15 4.9
2014-Oct-09 20:18N 57°06' E 010°47'4 5.8
2014-Oct-09 19:34N 57°10' E 010°45'7 6.0
2014-Oct-09 18:25N 57°17' E 010°41'6 6.4
2014-Oct-09 17:33N 57°22' E 010°42'6 6.1
2014-Oct-09 16:33N 57°28' E 010°43'6 6.1
2014-Oct-09 15:33N 57°34' E 010°44'6 6.1
2014-Oct-09 14:34N 57°40' E 010°45'7 6.5
2014-Oct-09 13:33N 57°47' E 010°43'1110.7
2014-Oct-09 12:33N 57°47' E 010°23'1010.0
2014-Oct-09 11:33N 57°46' E 010°05'135 7.5
2014-Oct-08 17:33N 58°02' E 005°52'14 6.9
2014-Oct-08 15:30N 58°11' E 005°32'  
2014-Oct-05 03:24N 62°13' W 005°34'6 6.7
2014-Oct-05 02:33N 62°16' W 005°45'6 6.4
2014-Oct-05 01:33N 62°19' W 005°57'  

Dump ship's entire track history